createdAt,value
2018-09-14T00:01:55.476Z,38.30
2018-09-14T00:04:24.230Z,38.50
2018-09-14T00:18:32.573Z,37.40
2018-09-14T00:21:01.332Z,38.20
2018-09-14T00:23:30.082Z,38.40
2018-09-14T00:25:58.933Z,39.33
2018-09-14T00:28:27.690Z,43.10
2018-09-14T00:30:56.527Z,40.90
2018-09-14T00:33:25.293Z,39.90
2018-09-14T00:35:54.253Z,43.53
2018-09-14T00:38:23.055Z,42.83
2018-09-14T00:40:52.073Z,42.60
2018-09-14T00:43:20.833Z,41.93
2018-09-14T00:45:49.663Z,40.70
2018-09-14T00:48:18.392Z,40.83
2018-09-14T00:50:47.160Z,39.60
2018-09-14T00:53:15.934Z,42.03
2018-09-14T00:55:44.714Z,38.83
2018-09-14T00:58:13.497Z,40.43
2018-09-14T01:00:42.244Z,38.70
2018-09-14T01:03:11.105Z,37.23
2018-09-14T01:05:39.928Z,38.80
2018-09-14T01:08:08.722Z,37.73
2018-09-14T01:10:37.461Z,35.80
2018-09-14T01:13:06.193Z,38.17
2018-09-14T01:15:34.976Z,36.90
2018-09-14T01:18:03.734Z,38.57
2018-09-14T01:20:32.482Z,35.80
2018-09-14T01:23:01.349Z,36.97
2018-09-14T01:25:30.158Z,35.97
2018-09-14T01:27:58.951Z,37.67
2018-09-14T01:30:27.717Z,38.80
2018-09-14T01:32:56.517Z,38.80
2018-09-14T01:36:31.154Z,39.40
2018-09-14T01:39:00.190Z,41.50
2018-09-14T01:41:28.948Z,40.40
2018-09-14T01:43:57.714Z,40.50
2018-09-14T01:46:26.487Z,39.10
2018-09-14T01:48:55.385Z,39.47
2018-09-14T01:51:24.188Z,40.97
2018-09-14T01:53:52.925Z,40.90
2018-09-14T01:56:21.706Z,39.47
2018-09-14T01:58:50.722Z,39.40
2018-09-14T02:01:19.848Z,38.20
2018-09-14T02:03:48.685Z,39.27
2018-09-14T02:06:17.468Z,38.10
2018-09-14T02:08:46.225Z,38.37
2018-09-14T02:11:15.065Z,40.20
2018-09-14T02:13:43.824Z,37.67
2018-09-14T02:16:12.612Z,38.53
2018-09-14T02:18:41.436Z,38.17
2018-09-14T02:21:10.239Z,37.20
2018-09-14T02:23:39.094Z,41.83
2018-09-14T02:26:30.748Z,38.27
2018-09-14T02:28:59.546Z,40.00
2018-09-14T02:31:28.345Z,37.77
2018-09-14T02:33:57.119Z,38.73
2018-09-14T02:36:25.911Z,38.10
2018-09-14T02:38:54.698Z,36.40
2018-09-14T02:41:23.502Z,34.47
2018-09-14T02:43:52.273Z,36.33
2018-09-14T02:46:21.033Z,35.20
2018-09-14T02:48:49.783Z,34.83
2018-09-14T02:51:18.536Z,35.90
2018-09-14T02:53:47.381Z,34.80
2018-09-14T02:56:16.179Z,34.80
2018-09-14T02:58:44.953Z,35.43
2018-09-14T03:01:13.937Z,34.57
2018-09-14T03:03:42.728Z,36.13
2018-09-14T03:06:23.930Z,35.10
2018-09-14T03:08:52.688Z,35.50
2018-09-14T03:11:21.652Z,34.73
2018-09-14T03:13:50.386Z,36.83
2018-09-14T03:16:19.189Z,35.07
2018-09-14T03:18:48.192Z,34.17
2018-09-14T03:21:16.947Z,35.37
2018-09-14T03:23:45.946Z,34.30
2018-09-14T03:26:15.458Z,35.87
2018-09-14T03:28:44.307Z,37.47
2018-09-14T03:31:13.099Z,37.07
2018-09-14T03:33:41.884Z,36.07
2018-09-14T03:36:10.642Z,35.93
2018-09-14T03:38:39.430Z,36.20
2018-09-14T03:41:08.557Z,38.00
2018-09-14T03:43:37.422Z,37.37
2018-09-14T03:46:06.314Z,37.50
2018-09-14T03:48:35.070Z,37.40
2018-09-14T03:51:03.952Z,39.23
2018-09-14T03:53:32.728Z,36.57
2018-09-14T03:56:01.622Z,37.77
2018-09-14T03:58:29.984Z,36.27
2018-09-14T04:00:58.344Z,34.80
2018-09-14T04:03:26.720Z,36.67
2018-09-14T04:05:55.077Z,34.73
2018-09-14T04:08:23.477Z,34.53
2018-09-14T04:10:51.857Z,36.40
2018-09-14T04:13:20.213Z,37.30
2018-09-14T04:15:48.599Z,36.40
2018-09-14T04:18:16.996Z,35.57
2018-09-14T04:20:45.390Z,36.73
2018-09-14T04:23:13.744Z,37.40
2018-09-14T04:25:42.098Z,36.70
2018-09-14T04:28:10.656Z,36.70
2018-09-14T04:30:39.125Z,35.20
2018-09-14T04:33:07.684Z,36.63
2018-09-14T04:35:36.041Z,34.53
2018-09-14T04:38:04.450Z,31.73
2018-09-14T04:40:32.801Z,33.57
2018-09-14T04:43:01.181Z,36.20
2018-09-14T04:45:29.553Z,35.53
2018-09-14T04:47:57.932Z,36.63
2018-09-14T04:50:26.313Z,34.97
2018-09-14T04:52:54.683Z,36.97
2018-09-14T04:55:23.039Z,35.63
2018-09-14T04:57:51.421Z,36.73
2018-09-14T05:00:19.808Z,35.47
2018-09-14T05:02:48.204Z,34.70
2018-09-14T05:05:16.576Z,37.20
2018-09-14T05:07:44.970Z,34.60
2018-09-14T05:10:13.300Z,35.30
2018-09-14T05:12:41.688Z,35.00
2018-09-14T05:15:10.110Z,35.10
2018-09-14T05:17:38.471Z,35.90
2018-09-14T05:20:06.873Z,37.07
2018-09-14T05:22:35.292Z,36.20
2018-09-14T05:25:03.740Z,33.83
2018-09-14T05:27:32.095Z,33.43
2018-09-14T05:30:00.471Z,34.60
2018-09-14T05:32:28.833Z,33.07
2018-09-14T05:34:57.241Z,33.13
2018-09-14T05:37:25.657Z,33.90
2018-09-14T05:39:54.021Z,34.83
2018-09-14T05:42:22.740Z,34.00
2018-09-14T05:44:51.101Z,36.23
2018-09-14T05:47:19.484Z,33.30
2018-09-14T05:49:47.852Z,33.83
2018-09-14T05:52:16.256Z,34.83
2018-09-14T05:54:44.621Z,36.10
2018-09-14T05:57:12.976Z,36.33
2018-09-14T05:59:41.367Z,36.97
2018-09-14T06:02:09.742Z,36.17
2018-09-14T06:04:38.363Z,37.53
2018-09-14T06:07:06.731Z,36.00
2018-09-14T06:09:35.085Z,38.50
2018-09-14T06:12:03.450Z,35.73
2018-09-14T06:14:32.401Z,38.20
2018-09-14T06:17:00.906Z,36.87
2018-09-14T06:19:29.168Z,36.47
2018-09-14T06:21:57.533Z,36.30
2018-09-14T06:24:25.884Z,35.70
2018-09-14T06:26:54.235Z,36.73
2018-09-14T06:29:22.626Z,36.67
2018-09-14T06:31:50.991Z,38.47
2018-09-14T06:34:19.471Z,36.87
2018-09-14T06:36:47.897Z,34.53
2018-09-14T06:39:16.252Z,37.23
2018-09-14T06:41:44.719Z,36.93
2018-09-14T06:44:13.100Z,36.67
2018-09-14T06:46:41.466Z,33.87
2018-09-14T06:49:09.907Z,36.50
2018-09-14T06:51:39.078Z,35.97
2018-09-14T06:54:08.052Z,35.77
2018-09-14T06:56:36.439Z,35.03
2018-09-14T06:59:05.040Z,35.10
2018-09-14T07:01:33.584Z,36.00
2018-09-14T07:04:01.958Z,35.13
2018-09-14T07:06:30.443Z,35.27
2018-09-14T07:08:58.780Z,36.73
2018-09-14T07:11:27.185Z,37.60
2018-09-14T07:13:55.593Z,36.03
2018-09-14T07:16:24.051Z,36.67
2018-09-14T07:18:52.440Z,35.10
2018-09-14T07:21:21.041Z,35.93
2018-09-14T07:23:49.437Z,32.90
2018-09-14T07:26:17.945Z,35.80
2018-09-14T07:28:46.355Z,33.77
2018-09-14T07:31:14.689Z,32.13
2018-09-14T07:33:43.256Z,31.87
2018-09-14T07:36:11.947Z,31.10
2018-09-14T07:38:40.316Z,31.13
2018-09-14T07:41:08.768Z,30.10
2018-09-14T07:43:37.111Z,30.63
2018-09-14T07:46:05.471Z,28.10
2018-09-14T07:48:33.861Z,27.97
2018-09-14T07:56:35.523Z,29.17
2018-09-14T07:59:03.905Z,28.07
2018-09-14T08:01:32.252Z,27.43
2018-09-14T08:04:00.932Z,29.13
2018-09-14T08:06:29.557Z,27.53
2018-09-14T08:08:57.927Z,28.03
2018-09-14T08:11:26.284Z,28.20
2018-09-14T08:13:54.641Z,29.43
2018-09-14T08:16:23.031Z,31.77
2018-09-14T08:18:51.394Z,29.70
2018-09-14T08:21:19.838Z,30.20
2018-09-14T08:23:48.136Z,31.10
2018-09-14T08:26:16.529Z,30.73
2018-09-14T08:28:44.871Z,31.37
2018-09-14T08:31:13.228Z,29.53
2018-09-14T08:33:41.606Z,29.37
2018-09-14T08:36:09.956Z,29.97
2018-09-14T08:38:38.297Z,28.47
2018-09-14T08:41:06.651Z,31.93
2018-09-14T08:43:35.030Z,29.77
2018-09-14T08:46:03.389Z,28.77
2018-09-14T08:48:31.768Z,28.17
2018-09-14T08:51:00.132Z,30.27
2018-09-14T08:53:28.498Z,29.30
2018-09-14T08:55:56.925Z,30.10
2018-09-14T08:58:25.281Z,28.90
2018-09-14T09:00:53.794Z,29.17
2018-09-14T09:03:22.156Z,27.13
2018-09-14T09:05:50.512Z,28.97
2018-09-14T09:08:18.939Z,27.97
2018-09-14T09:10:47.433Z,28.60
2018-09-14T09:13:15.795Z,28.27
2018-09-14T09:15:44.459Z,28.60
2018-09-14T09:18:12.863Z,28.87
2018-09-14T09:20:41.235Z,27.53
2018-09-14T09:23:09.632Z,30.63
2018-09-14T09:25:38.008Z,29.30
2018-09-14T09:28:06.366Z,29.33
2018-09-14T09:30:34.737Z,28.20
2018-09-14T09:33:03.109Z,28.30
2018-09-14T09:35:31.459Z,29.67
2018-09-14T09:37:59.903Z,28.40
2018-09-14T09:40:28.319Z,30.23
2018-09-14T09:42:56.684Z,30.97
2018-09-14T09:45:25.072Z,29.80
2018-09-14T09:47:53.449Z,28.17
2018-09-14T09:50:28.108Z,28.87
2018-09-14T09:52:56.468Z,30.73
2018-09-14T09:55:24.841Z,29.60
2018-09-14T09:57:53.235Z,27.87
2018-09-14T10:00:26.836Z,28.33
2018-09-14T10:03:00.576Z,29.97
2018-09-14T10:05:34.304Z,29.87
2018-09-14T10:08:02.684Z,29.90
2018-09-14T10:10:31.080Z,29.00
2018-09-14T10:12:59.518Z,28.03
2018-09-14T10:15:27.889Z,30.00
2018-09-14T10:17:56.253Z,29.57
2018-09-14T10:20:41.047Z,27.77
2018-09-14T10:23:09.455Z,27.30
2018-09-14T10:25:37.837Z,27.50
2018-09-14T10:28:06.375Z,26.07
2018-09-14T10:30:34.764Z,25.60
2018-09-14T10:33:03.124Z,28.10
2018-09-14T10:35:31.485Z,29.43
2018-09-14T10:37:59.930Z,27.33
2018-09-14T10:40:28.374Z,27.63
2018-09-14T10:42:56.808Z,26.23
2018-09-14T10:45:25.184Z,27.37
2018-09-14T10:47:53.520Z,29.17
2018-09-14T10:50:21.933Z,26.60
2018-09-14T10:52:50.303Z,27.93
2018-09-14T10:55:18.749Z,28.07
2018-09-14T10:57:47.119Z,25.60
2018-09-14T11:00:15.548Z,29.03
2018-09-14T11:02:44.008Z,27.50
2018-09-14T11:05:12.389Z,26.87
2018-09-14T11:07:40.944Z,25.00
2018-09-14T11:10:09.509Z,26.40
2018-09-14T11:12:37.893Z,24.20
2018-09-14T11:15:06.268Z,23.10
2018-09-14T11:17:34.659Z,23.13
2018-09-14T11:20:03.324Z,23.47
2018-09-14T11:22:31.695Z,25.37
2018-09-14T11:25:00.048Z,23.73
2018-09-14T11:27:28.426Z,24.80
2018-09-14T11:29:56.808Z,24.20
2018-09-14T11:32:25.400Z,23.27
2018-09-14T11:34:53.711Z,23.17
2018-09-14T11:37:22.327Z,25.33
2018-09-14T11:39:50.743Z,23.20
2018-09-14T11:42:19.121Z,23.93
2018-09-14T11:44:47.654Z,24.00
2018-09-14T11:47:16.018Z,23.73
2018-09-14T11:49:44.381Z,23.70
2018-09-14T11:52:12.896Z,22.50
2018-09-14T11:54:41.265Z,21.17
2018-09-14T11:57:09.616Z,21.83
2018-09-14T11:59:38.200Z,22.27
2018-09-14T12:02:06.567Z,21.30
2018-09-14T12:04:34.943Z,19.70
2018-09-14T12:07:03.567Z,18.30
2018-09-14T12:09:31.952Z,19.77
2018-09-14T12:12:00.308Z,19.60
2018-09-14T12:14:28.684Z,19.30
2018-09-14T12:16:57.056Z,23.60
2018-09-14T12:19:25.408Z,19.80
2018-09-14T12:21:53.839Z,19.97
2018-09-14T12:24:22.188Z,19.90
2018-09-14T12:26:50.567Z,21.00
2018-09-14T12:29:19.022Z,18.47
2018-09-14T12:31:47.399Z,19.90
2018-09-14T12:34:15.748Z,19.30
2018-09-14T12:39:30.903Z,18.73
2018-09-14T12:41:59.438Z,18.40
2018-09-14T12:44:27.812Z,18.83
2018-09-14T12:46:56.144Z,19.00
2018-09-14T12:49:24.628Z,19.63
2018-09-14T12:51:53.021Z,19.40
2018-09-14T12:54:21.455Z,19.00
2018-09-14T12:56:49.931Z,19.07
2018-09-14T12:59:18.317Z,20.20
2018-09-14T13:01:47.616Z,18.77
2018-09-14T13:04:16.030Z,20.00
2018-09-14T13:06:44.672Z,18.20
2018-09-14T13:09:13.049Z,17.10
2018-09-14T13:11:41.764Z,19.17
2018-09-14T13:14:10.157Z,18.00
2018-09-14T13:16:38.733Z,17.73
2018-09-14T13:19:07.158Z,17.30
2018-09-14T13:21:35.580Z,18.10
2018-09-14T13:24:03.943Z,17.90
2018-09-14T13:26:32.915Z,17.13
2018-09-14T13:29:01.297Z,16.30
2018-09-14T13:31:29.701Z,17.10
2018-09-14T13:33:58.044Z,15.67
2018-09-14T13:36:26.428Z,15.53
2018-09-14T13:38:54.788Z,16.27
2018-09-14T13:41:23.172Z,15.63
2018-09-14T13:43:51.548Z,17.17
2018-09-14T13:46:19.924Z,16.57
2018-09-14T13:48:48.388Z,18.00
2018-09-14T13:51:16.768Z,16.97
2018-09-14T13:53:45.173Z,16.60
2018-09-14T13:56:13.540Z,18.03
2018-09-14T13:58:41.909Z,19.17
2018-09-14T14:01:10.330Z,23.97
2018-09-14T14:03:38.716Z,20.50
2018-09-14T14:06:07.115Z,20.50
2018-09-14T14:08:35.491Z,20.60
2018-09-14T14:11:03.871Z,20.60
2018-09-14T14:13:32.244Z,19.90
2018-09-14T14:16:00.597Z,22.60
2018-09-14T14:18:28.953Z,19.83
2018-09-14T14:20:57.343Z,19.40
2018-09-14T14:23:25.696Z,19.10
2018-09-14T14:25:54.108Z,18.33
2018-09-14T14:28:22.493Z,17.97
2018-09-14T14:30:50.857Z,19.20
2018-09-14T14:33:19.236Z,18.27
2018-09-14T14:35:47.596Z,20.43
2018-09-14T14:38:15.936Z,20.40
2018-09-14T14:40:44.308Z,19.70
2018-09-14T14:43:12.724Z,18.57
2018-09-14T14:45:41.496Z,17.77
2018-09-14T14:48:09.865Z,17.83
2018-09-14T14:50:38.244Z,18.60
2018-09-14T14:53:06.616Z,17.17
2018-09-14T14:55:34.968Z,16.80
2018-09-14T14:58:03.367Z,16.37
2018-09-14T15:00:31.732Z,15.83
2018-09-14T15:03:00.368Z,18.17
2018-09-14T15:05:28.737Z,17.97
2018-09-14T15:07:57.087Z,18.07
2018-09-14T15:10:25.468Z,17.57
2018-09-14T15:12:53.876Z,16.50
2018-09-14T15:15:22.264Z,17.17
2018-09-14T15:17:50.622Z,19.30
2018-09-14T15:20:19.009Z,17.13
2018-09-14T15:22:47.384Z,19.57
2018-09-14T15:25:15.774Z,17.33
2018-09-14T15:27:44.172Z,17.40
2018-09-14T15:30:12.551Z,16.43
2018-09-14T15:32:40.933Z,16.40
2018-09-14T15:35:09.304Z,17.50
2018-09-14T15:37:37.655Z,16.20
2018-09-14T15:40:06.060Z,15.10
2018-09-14T15:42:34.453Z,14.80
2018-09-14T15:45:02.830Z,14.37
2018-09-14T15:47:31.197Z,16.00
2018-09-14T15:49:59.596Z,15.47
2018-09-14T15:52:27.962Z,14.90
2018-09-14T15:54:56.325Z,15.47
2018-09-14T15:57:24.706Z,14.90
2018-09-14T15:59:53.084Z,15.37
2018-09-14T16:02:21.448Z,15.67
2018-09-14T16:04:49.828Z,15.33
2018-09-14T16:07:18.202Z,15.50
2018-09-14T16:09:46.593Z,14.57
2018-09-14T16:12:14.988Z,16.23
2018-09-14T16:14:43.376Z,16.93
2018-09-14T16:17:12.098Z,14.50
2018-09-14T16:19:41.206Z,15.63
2018-09-14T16:22:09.594Z,15.67
2018-09-14T16:24:37.964Z,17.03
2018-09-14T16:27:06.913Z,16.30
2018-09-14T16:29:35.273Z,16.10
2018-09-14T16:32:03.648Z,15.23
2018-09-14T16:34:32.024Z,15.03
2018-09-14T16:37:00.533Z,14.60
2018-09-14T16:39:28.807Z,16.00
2018-09-14T16:41:57.186Z,15.00
2018-09-14T16:44:25.570Z,15.80
2018-09-14T16:46:53.942Z,14.90
2018-09-14T16:49:23.432Z,14.67
2018-09-14T16:51:52.536Z,14.60
2018-09-14T16:54:21.356Z,15.20
2018-09-14T16:56:49.715Z,15.33
2018-09-14T16:59:18.124Z,14.23
2018-09-14T17:01:46.761Z,15.10
2018-09-14T17:04:15.271Z,14.77
2018-09-14T17:06:43.651Z,12.07
2018-09-14T17:09:12.582Z,16.90
2018-09-14T17:11:41.033Z,14.00
2018-09-14T17:14:15.015Z,14.53
2018-09-14T17:16:43.669Z,14.30
2018-09-14T17:19:12.044Z,14.10
2018-09-14T17:21:40.409Z,13.40
2018-09-14T17:24:08.770Z,15.33
2018-09-14T17:26:37.127Z,12.73
2018-09-14T17:29:05.490Z,13.27
2018-09-14T17:34:20.223Z,13.00
2018-09-14T17:36:48.613Z,13.43
2018-09-14T17:39:16.992Z,13.03
2018-09-14T17:41:45.370Z,12.67
2018-09-14T17:44:13.811Z,14.27
2018-09-14T17:46:42.169Z,12.63
2018-09-14T17:49:10.653Z,13.67
2018-09-14T17:51:39.020Z,15.00
2018-09-14T17:54:07.650Z,14.57
2018-09-14T17:56:36.008Z,13.77
2018-09-14T17:59:04.381Z,13.40
2018-09-14T18:01:32.743Z,15.90
2018-09-14T18:04:01.189Z,12.47
2018-09-14T18:06:29.620Z,12.67
2018-09-14T18:08:57.994Z,13.27
2018-09-14T18:11:26.653Z,13.17
2018-09-14T18:13:55.038Z,11.33
2018-09-14T18:16:23.422Z,12.50
2018-09-14T18:18:51.859Z,11.27
2018-09-14T18:21:20.257Z,12.10
2018-09-14T18:23:48.626Z,11.40
2018-09-14T18:26:17.100Z,12.47
2018-09-14T18:28:45.478Z,11.30
2018-09-14T18:31:13.849Z,10.93
2018-09-14T18:33:47.502Z,11.33
2018-09-14T18:36:15.968Z,9.57
2018-09-14T18:38:44.287Z,10.80
2018-09-14T18:41:12.653Z,11.63
2018-09-14T18:43:41.015Z,10.60
2018-09-14T18:46:09.382Z,10.87
2018-09-14T18:48:37.738Z,10.50
2018-09-14T18:51:06.113Z,10.70
2018-09-14T18:53:34.561Z,11.57
2018-09-14T18:56:02.949Z,11.27
2018-09-14T18:58:31.323Z,11.30
2018-09-14T19:00:59.698Z,11.53
2018-09-14T19:03:28.084Z,11.47
2018-09-14T19:05:56.447Z,13.40
2018-09-14T19:08:24.816Z,11.00
2018-09-14T19:10:53.156Z,11.83
2018-09-14T19:13:21.581Z,10.80
2018-09-14T19:15:49.897Z,12.93
2018-09-14T19:18:18.496Z,11.97
2018-09-14T19:20:46.856Z,11.13
2018-09-14T19:23:15.203Z,10.20
2018-09-14T19:25:43.577Z,10.80
2018-09-14T19:28:11.944Z,9.80
2018-09-14T19:30:40.444Z,10.13
2018-09-14T19:33:08.853Z,11.63
2018-09-14T19:35:37.221Z,10.97
2018-09-14T19:38:05.596Z,10.07
2018-09-14T19:40:33.960Z,10.53
2018-09-14T19:43:02.307Z,9.53
2018-09-14T19:45:30.812Z,10.43
2018-09-14T19:47:59.211Z,11.10
2018-09-14T20:04:19.867Z,11.83
2018-09-14T20:06:48.228Z,10.40
2018-09-14T20:09:16.634Z,10.97
2018-09-14T20:11:45.952Z,12.23
2018-09-14T20:14:14.368Z,10.80
2018-09-14T20:16:42.731Z,10.57
2018-09-14T20:19:11.279Z,12.53
2018-09-14T20:21:39.706Z,13.10
2018-09-14T20:24:08.108Z,12.17
2018-09-14T20:26:36.515Z,11.20
2018-09-14T20:29:04.898Z,11.20
2018-09-14T20:31:33.264Z,11.40
2018-09-14T20:34:01.719Z,11.33
2018-09-14T20:39:18.373Z,11.83
2018-09-14T20:41:46.969Z,12.50
2018-09-14T20:44:15.333Z,12.97
2018-09-14T20:46:43.679Z,12.70
2018-09-14T20:49:12.292Z,11.70
2018-09-14T20:51:40.708Z,11.33
2018-09-14T20:54:09.111Z,12.13
2018-09-14T20:56:37.481Z,12.83
2018-09-14T20:59:05.892Z,11.23
2018-09-14T21:01:34.251Z,12.43
2018-09-14T21:04:02.643Z,12.07
2018-09-14T21:06:31.016Z,12.80
2018-09-14T21:09:11.520Z,13.13
2018-09-14T21:11:39.884Z,11.73
2018-09-14T21:14:08.272Z,12.57
2018-09-14T21:16:36.675Z,11.50
2018-09-14T21:19:05.100Z,12.50
2018-09-14T21:21:33.536Z,12.37
2018-09-14T21:24:01.904Z,13.80
2018-09-14T21:26:30.261Z,14.10
2018-09-14T21:28:58.646Z,12.90
2018-09-14T21:31:27.040Z,13.87
2018-09-14T21:33:55.412Z,13.47
2018-09-14T21:36:23.787Z,14.10
2018-09-14T21:38:52.135Z,14.13
2018-09-14T21:41:20.495Z,15.10
2018-09-14T21:43:48.839Z,14.73
2018-09-14T21:46:17.203Z,15.47
2018-09-14T21:48:45.601Z,15.17
2018-09-14T21:51:14.044Z,13.70
2018-09-14T21:53:42.531Z,14.97
2018-09-14T21:56:14.199Z,14.23
2018-09-14T22:01:29.925Z,14.30
2018-09-14T22:03:59.609Z,15.10
2018-09-14T22:06:28.062Z,14.80
2018-09-14T22:08:56.875Z,14.57
2018-09-14T22:11:25.224Z,13.87
2018-09-14T22:13:53.596Z,13.97
2018-09-14T22:16:21.956Z,12.60
2018-09-14T22:18:50.325Z,14.53
2018-09-14T22:21:19.097Z,12.90
2018-09-14T22:23:47.485Z,13.60
2018-09-14T22:26:15.864Z,12.20
2018-09-14T22:28:44.444Z,12.80
2018-09-14T22:31:12.796Z,12.53
2018-09-14T22:33:41.147Z,12.90
2018-09-14T22:36:09.545Z,13.73
2018-09-14T22:38:37.940Z,12.63
2018-09-14T22:41:06.299Z,12.07
2018-09-14T22:43:34.923Z,12.90
2018-09-14T22:46:03.279Z,12.50
2018-09-14T22:48:31.612Z,12.27
2018-09-14T22:51:00.001Z,13.03
2018-09-14T22:53:28.355Z,12.50
2018-09-14T22:55:56.711Z,12.50
2018-09-14T22:58:25.187Z,13.20
2018-09-14T23:00:58.953Z,13.77
2018-09-14T23:03:27.296Z,14.03
2018-09-14T23:05:55.684Z,14.27
2018-09-14T23:08:24.032Z,14.07
2018-09-14T23:10:52.516Z,14.40
2018-09-14T23:13:20.911Z,15.90
2018-09-14T23:15:59.200Z,14.30
2018-09-14T23:18:27.968Z,14.70
2018-09-14T23:20:56.368Z,15.27
2018-09-14T23:23:24.757Z,15.43
2018-09-14T23:25:54.710Z,14.53
2018-09-14T23:28:23.062Z,15.10
2018-09-14T23:30:51.661Z,14.03
2018-09-14T23:33:20.021Z,15.17
2018-09-14T23:35:48.387Z,14.50
2018-09-14T23:38:16.965Z,15.33
2018-09-14T23:40:45.314Z,14.63
2018-09-14T23:43:13.660Z,15.40
2018-09-14T23:45:42.037Z,14.67
2018-09-14T23:48:10.413Z,14.00
2018-09-14T23:50:38.760Z,13.83
2018-09-14T23:53:07.482Z,15.43
2018-09-14T23:55:35.903Z,15.10
